createdAt,value
2022-08-25T00:01:56.610Z,6.20
2022-08-25T00:04:24.088Z,5.80
2022-08-25T00:06:53.245Z,5.93
2022-08-25T00:09:22.593Z,8.13
2022-08-25T00:11:50.213Z,5.33
2022-08-25T00:14:20.435Z,6.97
2022-08-25T00:16:47.857Z,5.23
2022-08-25T00:19:18.280Z,5.63
2022-08-25T00:21:45.901Z,4.77
2022-08-25T00:24:13.982Z,7.30
2022-08-25T00:26:42.550Z,5.67
2022-08-25T00:29:10.217Z,6.43
2022-08-25T00:31:38.585Z,5.83
2022-08-25T00:34:08.623Z,6.40
2022-08-25T00:36:36.000Z,6.47
2022-08-25T00:39:03.461Z,6.50
2022-08-25T00:41:30.562Z,6.80
2022-08-25T00:43:59.801Z,6.20
2022-08-25T00:46:47.861Z,5.37
2022-08-25T00:49:36.349Z,7.47
2022-08-25T00:52:24.254Z,8.20
2022-08-25T00:54:53.866Z,5.97
2022-08-25T00:57:34.558Z,6.00
2022-08-25T01:00:22.629Z,6.97
2022-08-25T01:02:50.517Z,7.37
2022-08-25T01:05:19.436Z,6.30
2022-08-25T01:07:46.693Z,4.90
2022-08-25T01:10:14.183Z,5.93
2022-08-25T01:12:41.464Z,7.57
2022-08-25T01:15:10.346Z,6.20
2022-08-25T01:17:56.634Z,6.23
2022-08-25T01:20:29.287Z,6.03
2022-08-25T01:22:57.634Z,5.10
2022-08-25T01:25:33.629Z,6.07
2022-08-25T01:28:00.930Z,5.70
2022-08-25T01:30:28.277Z,6.97
2022-08-25T01:32:55.404Z,6.13
2022-08-25T01:35:22.785Z,6.93
2022-08-25T01:37:50.052Z,5.30
2022-08-25T01:40:17.313Z,5.90
2022-08-25T01:43:06.991Z,4.90
2022-08-25T01:45:35.055Z,5.33
2022-08-25T01:48:02.794Z,6.10
2022-08-25T01:50:30.157Z,9.60
2022-08-25T01:52:59.998Z,6.97
2022-08-25T01:55:27.502Z,10.20
2022-08-25T01:57:54.753Z,6.00
2022-08-25T02:00:22.816Z,7.97
2022-08-25T02:02:52.244Z,6.00
2022-08-25T02:05:23.754Z,7.77
2022-08-25T02:07:51.197Z,8.23
2022-08-25T02:10:18.431Z,7.93
2022-08-25T02:12:45.832Z,6.57
2022-08-25T02:15:13.059Z,6.00
2022-08-25T02:17:40.274Z,9.37
2022-08-25T02:20:09.686Z,8.10
2022-08-25T02:22:37.167Z,6.20
2022-08-25T02:25:05.222Z,11.57
2022-08-25T02:27:32.541Z,7.00
2022-08-25T02:29:59.730Z,6.90
2022-08-25T02:32:28.067Z,6.83
2022-08-25T02:34:55.243Z,7.90
2022-08-25T02:37:22.519Z,9.87
2022-08-25T02:39:50.389Z,12.53
2022-08-25T02:42:17.641Z,8.90
2022-08-25T02:44:44.827Z,9.53
2022-08-25T02:47:12.018Z,7.63
2022-08-25T02:49:39.208Z,7.77
2022-08-25T02:52:06.506Z,7.23
2022-08-25T02:54:33.731Z,7.57
2022-08-25T02:57:01.021Z,10.13
2022-08-25T02:59:28.286Z,6.20
2022-08-25T03:01:55.778Z,7.37
2022-08-25T03:04:23.076Z,7.60
2022-08-25T03:06:50.440Z,7.23
2022-08-25T03:09:18.288Z,7.07
2022-08-25T03:11:47.169Z,7.83
2022-08-25T03:14:14.713Z,6.27
2022-08-25T03:16:45.801Z,7.13
2022-08-25T03:19:13.952Z,8.23
2022-08-25T03:21:41.355Z,8.90
2022-08-25T03:24:08.657Z,8.60
2022-08-25T03:26:53.909Z,9.30
2022-08-25T03:29:25.247Z,8.07
2022-08-25T03:31:53.080Z,7.03
2022-08-25T03:34:20.672Z,6.53
2022-08-25T03:36:49.422Z,12.07
2022-08-25T03:39:17.544Z,8.97
2022-08-25T03:41:44.847Z,8.27
2022-08-25T03:44:12.047Z,7.73
2022-08-25T03:46:46.752Z,10.97
2022-08-25T03:49:18.875Z,11.13
2022-08-25T03:51:50.136Z,12.67
2022-08-25T03:54:19.280Z,7.83
2022-08-25T03:56:46.438Z,8.53
2022-08-25T03:59:13.818Z,11.67
2022-08-25T04:01:42.263Z,8.37
2022-08-25T04:04:10.281Z,10.57
2022-08-25T04:06:38.681Z,9.23
2022-08-25T04:09:05.897Z,7.97
2022-08-25T04:11:33.006Z,8.23
2022-08-25T04:14:01.425Z,7.93
2022-08-25T04:16:32.610Z,8.90
2022-08-25T04:19:01.834Z,7.73
2022-08-25T04:21:30.049Z,14.40
2022-08-25T04:23:57.278Z,13.67
2022-08-25T04:26:33.427Z,9.70
2022-08-25T04:29:01.116Z,13.33
2022-08-25T04:31:28.561Z,17.10
2022-08-25T04:33:55.973Z,10.63
2022-08-25T04:36:23.048Z,8.20
2022-08-25T04:38:50.672Z,8.70
2022-08-25T04:41:20.518Z,14.37
2022-08-25T04:43:47.741Z,10.27
2022-08-25T04:46:26.163Z,10.63
2022-08-25T04:48:54.185Z,87.27
2022-08-25T04:51:23.805Z,15.40
2022-08-25T04:53:51.227Z,12.70
2022-08-25T04:56:19.925Z,9.80
2022-08-25T04:58:47.608Z,12.60
2022-08-25T05:01:19.226Z,12.73
2022-08-25T05:03:47.092Z,15.60
2022-08-25T05:06:16.152Z,25.10
2022-08-25T05:08:45.768Z,23.73
2022-08-25T05:11:14.955Z,20.37
2022-08-25T05:13:43.032Z,24.53
2022-08-25T05:16:11.496Z,26.73
2022-08-25T05:18:38.721Z,30.77
2022-08-25T05:21:14.301Z,26.90
2022-08-25T05:23:41.405Z,26.27
2022-08-25T05:26:22.304Z,29.07
2022-08-25T05:28:50.576Z,27.10
2022-08-25T05:31:17.769Z,30.13
2022-08-25T05:33:44.902Z,32.50
2022-08-25T05:36:12.892Z,28.47
2022-08-25T05:38:41.155Z,27.17
2022-08-25T05:41:13.385Z,28.83
2022-08-25T05:43:41.470Z,31.53
2022-08-25T05:46:09.111Z,28.57
2022-08-25T05:48:36.288Z,32.63
2022-08-25T05:51:05.174Z,29.80
2022-08-25T05:53:34.093Z,33.87
2022-08-25T05:56:02.192Z,25.77
2022-08-25T05:58:30.005Z,25.10
2022-08-25T06:00:57.615Z,31.50
2022-08-25T06:03:25.027Z,28.15
2022-08-25T06:05:52.187Z,31.63
2022-08-25T06:08:20.149Z,28.45
2022-08-25T06:10:52.606Z,28.97
2022-08-25T06:13:28.032Z,30.35
2022-08-25T06:16:00.156Z,30.10
2022-08-25T06:18:27.368Z,33.05
2022-08-25T06:20:54.519Z,27.23
2022-08-25T06:23:22.027Z,27.53
2022-08-25T06:25:52.883Z,29.13
2022-08-25T06:28:20.397Z,33.17
2022-08-25T06:30:48.169Z,28.80
2022-08-25T06:33:15.767Z,31.17
2022-08-25T06:35:43.660Z,33.15
2022-08-25T06:38:11.416Z,30.27
2022-08-25T06:40:38.838Z,29.77
2022-08-25T06:43:09.092Z,33.97
2022-08-25T06:45:36.236Z,25.20
2022-08-25T06:48:03.346Z,25.27
2022-08-25T06:50:30.354Z,26.63
2022-08-25T06:52:57.425Z,23.83
2022-08-25T06:55:24.669Z,30.23
2022-08-25T06:57:55.089Z,27.98
2022-08-25T07:00:23.179Z,22.70
2022-08-25T07:02:58.940Z,22.88
2022-08-25T07:05:34.030Z,33.35
2022-08-25T07:08:12.110Z,40.85
2022-08-25T07:10:39.328Z,27.20
2022-08-25T07:13:06.560Z,26.17
2022-08-25T07:15:37.950Z,24.88
2022-08-25T07:18:05.830Z,22.77
2022-08-25T07:20:35.218Z,22.83
2022-08-25T07:23:02.615Z,24.08
2022-08-25T07:25:29.887Z,20.30
2022-08-25T07:27:58.952Z,21.02
2022-08-25T07:30:26.406Z,25.15
2022-08-25T07:32:55.185Z,21.65
2022-08-25T07:35:26.359Z,20.08
2022-08-25T07:37:57.182Z,19.77
2022-08-25T07:40:28.840Z,19.63
2022-08-25T07:42:57.213Z,25.83
2022-08-25T07:45:30.791Z,17.45
2022-08-25T07:48:02.943Z,16.23
2022-08-25T07:50:30.240Z,16.58
2022-08-25T07:52:58.605Z,22.23
2022-08-25T07:55:27.189Z,18.42
2022-08-25T07:57:57.151Z,19.27
2022-08-25T08:00:27.948Z,16.77
2022-08-25T08:02:55.375Z,19.40
2022-08-25T08:05:24.030Z,15.90
2022-08-25T08:07:52.098Z,14.02
2022-08-25T08:13:07.671Z,14.25
2022-08-25T08:15:35.899Z,12.10
2022-08-25T08:18:04.206Z,12.32
2022-08-25T08:20:42.275Z,12.85
2022-08-25T08:23:10.533Z,12.27
2022-08-25T08:25:37.807Z,10.38
2022-08-25T08:28:06.992Z,10.13
2022-08-25T08:30:34.583Z,7.25
2022-08-25T08:33:11.229Z,6.25
2022-08-25T08:35:43.395Z,5.43
2022-08-25T08:38:17.258Z,6.30
2022-08-25T08:41:14.495Z,8.68
2022-08-25T08:43:42.534Z,9.02
2022-08-25T08:46:09.788Z,8.40
2022-08-25T08:48:58.144Z,11.75
2022-08-25T08:51:33.129Z,12.57
2022-08-25T08:54:06.066Z,10.23
2022-08-25T08:56:47.995Z,12.48
2022-08-25T08:59:21.904Z,11.07
2022-08-25T09:02:01.202Z,10.45
2022-08-25T09:04:48.966Z,14.38
2022-08-25T09:07:22.337Z,10.75
2022-08-25T09:09:49.630Z,15.93
2022-08-25T09:12:34.867Z,12.10
2022-08-25T09:15:12.966Z,12.65
2022-08-25T09:17:54.763Z,10.75
2022-08-25T09:20:28.185Z,15.85
2022-08-25T09:23:13.146Z,12.55
2022-08-25T09:25:54.003Z,15.48
2022-08-25T09:28:31.696Z,13.02
2022-08-25T09:31:04.676Z,14.48
2022-08-25T09:33:35.395Z,18.48
2022-08-25T09:36:05.932Z,16.73
2022-08-25T09:38:33.773Z,19.88
2022-08-25T09:41:01.411Z,14.32
2022-08-25T09:43:57.888Z,16.80
2022-08-25T09:46:27.973Z,15.85
2022-08-25T09:48:57.824Z,14.00
2022-08-25T09:51:42.592Z,17.38
2022-08-25T09:54:15.916Z,16.65
2022-08-25T09:56:56.167Z,14.13
2022-08-25T09:59:35.096Z,15.50
2022-08-25T10:02:21.455Z,15.18
2022-08-25T10:04:48.808Z,15.75
2022-08-25T10:07:40.149Z,16.20
2022-08-25T10:10:18.492Z,15.98
2022-08-25T10:12:48.735Z,15.70
2022-08-25T10:15:39.856Z,15.23
2022-08-25T10:18:27.416Z,23.48
2022-08-25T10:21:15.272Z,13.93
2022-08-25T10:23:52.974Z,33.65
2022-08-25T10:26:55.972Z,22.10
2022-08-25T10:29:50.369Z,17.85
2022-08-25T10:32:58.490Z,25.48
2022-08-25T10:35:46.350Z,17.60
2022-08-25T10:38:45.456Z,22.23
2022-08-25T10:41:48.650Z,16.58
2022-08-25T10:44:58.794Z,17.63
2022-08-25T10:47:28.911Z,21.00
2022-08-25T10:50:02.677Z,13.68
2022-08-25T10:52:32.625Z,17.55
2022-08-25T10:55:12.584Z,18.45
2022-08-25T10:57:53.354Z,13.35
2022-08-25T11:00:23.208Z,15.55
2022-08-25T11:03:26.897Z,14.88
2022-08-25T11:05:58.804Z,20.17
2022-08-25T11:08:36.873Z,19.27
2022-08-25T11:11:35.002Z,17.25
2022-08-25T11:14:12.136Z,18.52
2022-08-25T11:17:02.259Z,12.55
2022-08-25T11:19:33.938Z,17.48
2022-08-25T11:22:27.333Z,15.75
2022-08-25T11:25:04.100Z,13.90
2022-08-25T11:27:54.463Z,14.50
2022-08-25T11:30:21.913Z,15.30
2022-08-25T11:32:51.610Z,16.85
2022-08-25T11:35:33.545Z,12.50
2022-08-25T11:38:05.409Z,14.13
2022-08-25T11:40:58.317Z,17.77
2022-08-25T11:43:41.260Z,18.05
2022-08-25T11:46:28.827Z,14.57
2022-08-25T11:49:21.776Z,15.60
2022-08-25T11:51:50.965Z,14.68
2022-08-25T11:54:28.544Z,15.75
2022-08-25T11:57:07.058Z,19.35
2022-08-25T12:00:01.156Z,15.55
2022-08-25T12:02:29.153Z,16.15
2022-08-25T12:04:56.729Z,14.43
2022-08-25T12:07:46.115Z,16.50
2022-08-25T12:10:18.863Z,15.88
2022-08-25T12:12:46.495Z,18.27
2022-08-25T12:15:29.415Z,15.65
2022-08-25T12:18:14.344Z,14.27
2022-08-25T12:20:54.913Z,16.08
2022-08-25T12:24:04.499Z,21.33
2022-08-25T12:26:57.728Z,18.17
2022-08-25T12:29:47.500Z,15.40
2022-08-25T12:32:23.632Z,18.80
2022-08-25T12:35:11.270Z,17.55
2022-08-25T12:38:05.034Z,20.77
2022-08-25T12:41:03.457Z,18.88
2022-08-25T12:43:33.308Z,21.88
2022-08-25T12:46:19.898Z,17.10
2022-08-25T12:49:12.411Z,18.25
2022-08-25T12:52:10.517Z,13.70
2022-08-25T12:54:47.517Z,18.27
2022-08-25T12:57:33.579Z,16.52
2022-08-25T13:00:05.693Z,16.60
2022-08-25T13:03:04.157Z,14.45
2022-08-25T13:05:41.356Z,14.80
2022-08-25T13:09:08.266Z,16.00
2022-08-25T13:11:41.416Z,13.32
2022-08-25T13:14:44.218Z,16.45
2022-08-25T13:17:12.073Z,15.70
2022-08-25T13:19:39.257Z,13.90
2022-08-25T13:22:19.834Z,12.52
2022-08-25T13:24:47.519Z,15.07
2022-08-25T13:27:23.028Z,13.70
2022-08-25T13:29:54.731Z,13.18
2022-08-25T13:32:35.315Z,11.18
2022-08-25T13:35:21.493Z,13.82
2022-08-25T13:37:49.566Z,12.07
2022-08-25T13:40:29.345Z,15.90
2022-08-25T13:43:09.252Z,13.00
2022-08-25T13:45:42.674Z,11.98
2022-08-25T13:48:20.881Z,12.80
2022-08-25T13:50:51.693Z,14.70
2022-08-25T13:53:26.333Z,14.93
2022-08-25T13:55:58.844Z,10.48
2022-08-25T13:58:44.438Z,17.88
2022-08-25T14:01:22.916Z,12.80
2022-08-25T14:04:23.744Z,12.63
2022-08-25T14:07:06.087Z,14.57
2022-08-25T14:09:48.387Z,14.90
2022-08-25T14:12:29.409Z,13.32
2022-08-25T14:15:22.886Z,12.02
2022-08-25T14:18:01.109Z,12.10
2022-08-25T14:20:31.211Z,12.35
2022-08-25T14:23:09.725Z,10.90
2022-08-25T14:25:40.560Z,12.70
2022-08-25T14:28:17.698Z,16.85
2022-08-25T14:30:56.629Z,11.20
2022-08-25T14:33:27.703Z,13.60
2022-08-25T14:35:55.204Z,16.50
2022-08-25T14:38:23.705Z,12.75
2022-08-25T14:40:51.387Z,12.27
2022-08-25T14:43:23.861Z,10.38
2022-08-25T14:45:51.865Z,14.15
2022-08-25T14:48:33.165Z,9.65
2022-08-25T14:51:00.364Z,13.25
2022-08-25T14:53:28.619Z,13.15
2022-08-25T14:55:58.791Z,11.43
2022-08-25T14:58:27.113Z,14.05
2022-08-25T15:00:54.550Z,13.98
2022-08-25T15:03:30.091Z,11.88
2022-08-25T15:06:00.171Z,10.60
2022-08-25T15:08:45.953Z,10.65
2022-08-25T15:11:15.038Z,13.82
2022-08-25T15:13:49.013Z,14.35
2022-08-25T15:16:34.979Z,12.10
2022-08-25T15:19:07.384Z,16.00
2022-08-25T15:21:36.288Z,13.77
2022-08-25T15:24:05.191Z,18.35
2022-08-25T15:26:34.523Z,11.63
2022-08-25T15:29:03.849Z,17.20
2022-08-25T15:31:31.160Z,16.52
2022-08-25T15:33:59.589Z,11.30
2022-08-25T15:36:27.100Z,19.23
2022-08-25T15:38:54.519Z,10.65
2022-08-25T15:41:27.073Z,15.25
2022-08-25T15:43:56.614Z,12.75
2022-08-25T15:46:24.773Z,13.68
2022-08-25T15:48:52.267Z,11.45
2022-08-25T15:51:19.542Z,9.60
2022-08-25T15:53:46.779Z,13.93
2022-08-25T15:56:26.363Z,13.90
2022-08-25T15:58:55.638Z,14.07
2022-08-25T16:01:26.978Z,13.18
2022-08-25T16:03:54.808Z,14.75
2022-08-25T16:06:22.412Z,15.90
2022-08-25T16:08:50.157Z,15.10
2022-08-25T16:11:28.442Z,14.70
2022-08-25T16:13:57.517Z,15.20
2022-08-25T16:16:26.357Z,15.20
2022-08-25T16:18:53.795Z,12.75
2022-08-25T16:21:26.145Z,13.40
2022-08-25T16:23:58.499Z,15.93
2022-08-25T16:26:26.549Z,15.85
2022-08-25T16:28:53.667Z,12.73
2022-08-25T16:31:21.053Z,20.42
2022-08-25T16:33:48.899Z,15.05
2022-08-25T16:36:18.537Z,18.15
2022-08-25T16:38:49.037Z,14.45
2022-08-25T16:41:18.714Z,17.08
2022-08-25T16:43:45.910Z,17.48
2022-08-25T16:46:14.355Z,10.77
2022-08-25T16:48:42.197Z,12.73
2022-08-25T16:51:13.147Z,13.90
2022-08-25T16:54:00.031Z,11.85
2022-08-25T16:56:28.797Z,11.30
2022-08-25T16:58:57.141Z,14.98
2022-08-25T17:01:25.422Z,14.00
2022-08-25T17:03:53.545Z,14.43
2022-08-25T17:06:21.331Z,15.52
2022-08-25T17:08:51.171Z,14.20
2022-08-25T17:11:27.076Z,15.93
2022-08-25T17:13:55.907Z,14.82
2022-08-25T17:16:27.994Z,12.65
2022-08-25T17:18:55.587Z,13.63
2022-08-25T17:21:24.595Z,15.35
2022-08-25T17:23:53.358Z,16.60
2022-08-25T17:26:20.553Z,13.88
2022-08-25T17:28:55.607Z,14.20
2022-08-25T17:31:23.242Z,17.98
2022-08-25T17:33:52.442Z,14.98
2022-08-25T17:36:19.782Z,15.18
2022-08-25T17:38:55.030Z,12.75
2022-08-25T17:41:24.086Z,11.73
2022-08-25T17:43:51.268Z,17.92
2022-08-25T17:46:18.548Z,17.75
2022-08-25T17:48:46.409Z,13.82
2022-08-25T17:51:15.881Z,19.27
2022-08-25T17:53:43.897Z,18.40
2022-08-25T17:56:18.671Z,13.65
2022-08-25T17:58:47.566Z,14.70
2022-08-25T18:01:19.736Z,14.40
2022-08-25T18:03:49.701Z,15.38
2022-08-25T18:06:17.056Z,16.17
2022-08-25T18:08:44.594Z,11.65
2022-08-25T18:11:18.962Z,20.70
2022-08-25T18:13:46.125Z,16.60
2022-08-25T18:16:13.518Z,16.00
2022-08-25T18:18:41.355Z,16.83
2022-08-25T18:21:13.348Z,15.85
2022-08-25T18:23:40.752Z,15.32
2022-08-25T18:26:08.639Z,13.48
2022-08-25T18:28:40.675Z,11.93
2022-08-25T18:31:13.212Z,16.48
2022-08-25T18:33:42.268Z,16.83
2022-08-25T18:36:09.897Z,14.75
2022-08-25T18:38:58.171Z,15.50
2022-08-25T18:41:26.184Z,14.70
2022-08-25T18:43:53.641Z,15.35
2022-08-25T18:46:22.790Z,16.27
2022-08-25T18:48:52.804Z,15.07
2022-08-25T18:51:23.007Z,15.30
2022-08-25T18:53:54.706Z,13.23
2022-08-25T18:56:27.111Z,16.90
2022-08-25T18:58:54.242Z,15.68
2022-08-25T19:01:21.806Z,12.80
2022-08-25T19:03:49.917Z,14.93
2022-08-25T19:06:17.497Z,18.33
2022-08-25T19:08:46.674Z,12.93
2022-08-25T19:11:14.910Z,15.77
2022-08-25T19:13:43.721Z,12.10
2022-08-25T19:16:17.813Z,11.68
2022-08-25T19:18:47.892Z,15.77
2022-08-25T19:21:15.122Z,17.17
2022-08-25T19:23:42.519Z,15.70
2022-08-25T19:26:17.033Z,15.95
2022-08-25T19:28:48.936Z,11.00
2022-08-25T19:31:20.795Z,12.20
2022-08-25T19:33:49.266Z,14.20
2022-08-25T19:36:17.125Z,12.85
2022-08-25T19:38:44.691Z,11.57
2022-08-25T19:41:14.863Z,15.05
2022-08-25T19:43:55.559Z,13.70
2022-08-25T19:46:33.131Z,13.07
2022-08-25T19:49:08.974Z,14.25
2022-08-25T19:51:44.656Z,14.40
2022-08-25T19:54:13.459Z,13.80
2022-08-25T19:56:43.900Z,13.55
2022-08-25T19:59:25.292Z,13.60
2022-08-25T20:01:53.218Z,14.50
2022-08-25T20:04:21.138Z,13.93
2022-08-25T20:06:52.466Z,13.10
2022-08-25T20:09:38.603Z,15.05
2022-08-25T20:12:08.204Z,13.70
2022-08-25T20:14:36.720Z,13.00
2022-08-25T20:17:04.322Z,17.35
2022-08-25T20:19:42.014Z,11.20
2022-08-25T20:22:11.232Z,13.02
2022-08-25T20:24:56.125Z,12.55
2022-08-25T20:27:33.752Z,14.48
2022-08-25T20:30:02.779Z,15.32
2022-08-25T20:32:32.289Z,12.60
2022-08-25T20:35:00.291Z,10.30
2022-08-25T20:37:27.627Z,13.13
2022-08-25T20:39:55.632Z,14.82
2022-08-25T20:42:23.010Z,12.85
2022-08-25T20:44:50.445Z,13.63
2022-08-25T20:47:20.911Z,12.00
2022-08-25T20:49:49.075Z,11.50
2022-08-25T20:52:18.779Z,14.27
2022-08-25T20:54:49.312Z,13.93
2022-08-25T20:57:18.281Z,13.98
2022-08-25T20:59:51.948Z,16.27
2022-08-25T21:02:19.500Z,16.75
2022-08-25T21:04:50.240Z,12.10
2022-08-25T21:07:18.640Z,13.55
2022-08-25T21:09:46.155Z,13.50
2022-08-25T21:12:13.571Z,14.30
2022-08-25T21:14:41.800Z,11.63
2022-08-25T21:17:12.057Z,11.90
2022-08-25T21:19:40.247Z,11.10
2022-08-25T21:22:10.866Z,11.90
2022-08-25T21:24:38.624Z,12.37
2022-08-25T21:27:06.225Z,14.23
2022-08-25T21:29:33.830Z,16.90
2022-08-25T21:32:01.162Z,16.50
2022-08-25T21:34:29.548Z,11.30
2022-08-25T21:37:00.219Z,12.90
2022-08-25T21:39:28.288Z,14.93
2022-08-25T21:41:56.838Z,12.20
2022-08-25T21:44:24.348Z,18.15
2022-08-25T21:46:54.557Z,15.43
2022-08-25T21:49:22.428Z,14.73
2022-08-25T21:51:59.574Z,13.87
2022-08-25T21:54:28.607Z,10.90
2022-08-25T21:57:02.939Z,10.90
2022-08-25T21:59:32.644Z,11.43
2022-08-25T22:02:01.871Z,12.00
2022-08-25T22:04:29.229Z,11.97
2022-08-25T22:06:57.443Z,10.60
2022-08-25T22:09:25.864Z,14.97
2022-08-25T22:11:54.553Z,12.00
2022-08-25T22:14:22.191Z,11.93
2022-08-25T22:16:49.391Z,11.07
2022-08-25T22:19:16.908Z,10.90
2022-08-25T22:21:44.834Z,14.97
2022-08-25T22:24:12.093Z,14.13
2022-08-25T22:26:39.528Z,15.17
2022-08-25T22:29:07.864Z,15.30
2022-08-25T22:31:35.463Z,14.07
2022-08-25T22:34:03.191Z,14.53
2022-08-25T22:36:32.623Z,13.17
2022-08-25T22:39:00.134Z,11.47
2022-08-25T22:41:28.608Z,15.27
2022-08-25T22:43:56.973Z,17.30
2022-08-25T22:46:29.289Z,14.83
2022-08-25T22:48:57.944Z,10.90
2022-08-25T22:51:27.489Z,13.13
2022-08-25T22:53:54.829Z,11.90
2022-08-25T22:56:31.065Z,14.17
2022-08-25T22:59:06.258Z,14.63
2022-08-25T23:01:33.686Z,14.13
2022-08-25T23:04:01.281Z,17.07
2022-08-25T23:06:29.705Z,11.27
2022-08-25T23:08:57.166Z,16.23
2022-08-25T23:11:24.550Z,13.47
2022-08-25T23:13:54.003Z,12.50
2022-08-25T23:16:22.705Z,12.93
2022-08-25T23:18:49.982Z,12.97
2022-08-25T23:21:41.033Z,12.70
2022-08-25T23:24:12.861Z,12.60
2022-08-25T23:26:42.426Z,17.70
2022-08-25T23:29:18.488Z,14.37
2022-08-25T23:31:47.727Z,12.30
2022-08-25T23:34:16.100Z,12.83
2022-08-25T23:36:43.820Z,12.47
2022-08-25T23:39:11.139Z,15.07
2022-08-25T23:41:38.367Z,11.20
2022-08-25T23:44:06.075Z,13.93
2022-08-25T23:46:35.737Z,10.23
2022-08-25T23:49:05.778Z,15.40
2022-08-25T23:51:37.150Z,11.67
2022-08-25T23:54:06.590Z,13.03
2022-08-25T23:56:36.642Z,12.47
2022-08-25T23:59:10.830Z,11.80
